sensor_id;sensor_type;location;lat;lon;timestamp;temperature;humidity
15834;DHT22;8017;50.812;4.934;2022-10-28T00:02:40;16.90;99.90
15834;DHT22;8017;50.812;4.934;2022-10-28T00:05:42;17.00;99.90
15834;DHT22;8017;50.812;4.934;2022-10-28T00:08:46;16.90;99.90
15834;DHT22;8017;50.812;4.934;2022-10-28T00:11:48;16.80;99.90
15834;DHT22;8017;50.812;4.934;2022-10-28T00:14:50;16.70;99.90
15834;DHT22;8017;50.812;4.934;2022-10-28T00:17:52;16.60;99.90
15834;DHT22;8017;50.812;4.934;2022-10-28T00:20:59;16.50;99.90
15834;DHT22;8017;50.812;4.934;2022-10-28T00:24:02;16.60;99.90
15834;DHT22;8017;50.812;4.934;2022-10-28T00:27:04;16.50;99.90
15834;DHT22;8017;50.812;4.934;2022-10-28T00:30:07;16.40;99.90
15834;DHT22;8017;50.812;4.934;2022-10-28T00:33:09;16.30;99.90
15834;DHT22;8017;50.812;4.934;2022-10-28T00:36:13;16.20;99.90
15834;DHT22;8017;50.812;4.934;2022-10-28T00:39:18;16.10;99.90
15834;DHT22;8017;50.812;4.934;2022-10-28T00:42:20;16.00;99.90
15834;DHT22;8017;50.812;4.934;2022-10-28T00:45:23;15.90;99.90
15834;DHT22;8017;50.812;4.934;2022-10-28T00:48:25;15.90;99.90
15834;DHT22;8017;50.812;4.934;2022-10-28T00:51:27;16.00;99.90
15834;DHT22;8017;50.812;4.934;2022-10-28T00:54:31;16.20;99.90
15834;DHT22;8017;50.812;4.934;2022-10-28T00:57:36;16.20;99.90
15834;DHT22;8017;50.812;4.934;2022-10-28T01:00:38;16.40;99.90
15834;DHT22;8017;50.812;4.934;2022-10-28T01:03:40;16.40;99.90
15834;DHT22;8017;50.812;4.934;2022-10-28T01:06:42;16.30;99.90
15834;DHT22;8017;50.812;4.934;2022-10-28T01:09:46;16.30;99.90
15834;DHT22;8017;50.812;4.934;2022-10-28T01:12:58;16.40;99.90
15834;DHT22;8017;50.812;4.934;2022-10-28T01:16:12;16.30;99.90
15834;DHT22;8017;50.812;4.934;2022-10-28T01:19:54;16.30;99.90
15834;DHT22;8017;50.812;4.934;2022-10-28T01:23:04;16.30;99.90
15834;DHT22;8017;50.812;4.934;2022-10-28T01:26:28;16.20;99.90
15834;DHT22;8017;50.812;4.934;2022-10-28T01:30:00;16.30;99.90
15834;DHT22;8017;50.812;4.934;2022-10-28T01:33:08;16.20;99.90
15834;DHT22;8017;50.812;4.934;2022-10-28T01:36:15;16.10;99.90
15834;DHT22;8017;50.812;4.934;2022-10-28T01:39:25;16.10;99.90
15834;DHT22;8017;50.812;4.934;2022-10-28T01:42:33;16.00;99.90
15834;DHT22;8017;50.812;4.934;2022-10-28T01:45:41;16.00;99.90
15834;DHT22;8017;50.812;4.934;2022-10-28T01:48:50;16.00;99.90
15834;DHT22;8017;50.812;4.934;2022-10-28T01:51:57;16.00;99.90
15834;DHT22;8017;50.812;4.934;2022-10-28T01:55:05;15.90;99.90
15834;DHT22;8017;50.812;4.934;2022-10-28T01:58:11;15.80;99.90
15834;DHT22;8017;50.812;4.934;2022-10-28T02:01:14;15.80;99.90
15834;DHT22;8017;50.812;4.934;2022-10-28T02:04:18;15.80;99.90
15834;DHT22;8017;50.812;4.934;2022-10-28T02:07:20;15.80;99.90
15834;DHT22;8017;50.812;4.934;2022-10-28T02:10:24;16.00;99.90
15834;DHT22;8017;50.812;4.934;2022-10-28T02:13:45;16.10;99.90
15834;DHT22;8017;50.812;4.934;2022-10-28T02:16:48;16.20;99.90
15834;DHT22;8017;50.812;4.934;2022-10-28T02:19:57;16.20;99.90
15834;DHT22;8017;50.812;4.934;2022-10-28T02:23:09;16.20;99.90
15834;DHT22;8017;50.812;4.934;2022-10-28T02:26:15;16.10;99.90
15834;DHT22;8017;50.812;4.934;2022-10-28T02:29:28;16.00;99.90
15834;DHT22;8017;50.812;4.934;2022-10-28T02:32:34;16.00;99.90
15834;DHT22;8017;50.812;4.934;2022-10-28T02:35:43;15.90;99.90
15834;DHT22;8017;50.812;4.934;2022-10-28T02:38:49;15.90;99.90
15834;DHT22;8017;50.812;4.934;2022-10-28T02:41:54;15.80;99.90
15834;DHT22;8017;50.812;4.934;2022-10-28T02:44:59;15.70;99.90
15834;DHT22;8017;50.812;4.934;2022-10-28T02:48:05;15.70;99.90
15834;DHT22;8017;50.812;4.934;2022-10-28T02:51:11;15.60;99.90
15834;DHT22;8017;50.812;4.934;2022-10-28T02:54:17;15.60;99.90
15834;DHT22;8017;50.812;4.934;2022-10-28T02:57:23;15.70;99.90
15834;DHT22;8017;50.812;4.934;2022-10-28T03:00:25;15.70;99.90
15834;DHT22;8017;50.812;4.934;2022-10-28T03:03:27;15.60;99.90
15834;DHT22;8017;50.812;4.934;2022-10-28T03:06:31;15.70;99.90
15834;DHT22;8017;50.812;4.934;2022-10-28T03:09:33;15.70;99.90
15834;DHT22;8017;50.812;4.934;2022-10-28T03:12:35;15.70;99.90
15834;DHT22;8017;50.812;4.934;2022-10-28T03:15:37;15.70;99.90
15834;DHT22;8017;50.812;4.934;2022-10-28T03:18:39;15.80;99.90
15834;DHT22;8017;50.812;4.934;2022-10-28T03:21:42;15.80;99.90
15834;DHT22;8017;50.812;4.934;2022-10-28T03:24:44;15.80;99.90
15834;DHT22;8017;50.812;4.934;2022-10-28T03:27:46;15.80;99.90
15834;DHT22;8017;50.812;4.934;2022-10-28T03:30:47;15.80;99.90
15834;DHT22;8017;50.812;4.934;2022-10-28T03:33:49;16.00;99.90
15834;DHT22;8017;50.812;4.934;2022-10-28T03:36:52;16.10;99.90
15834;DHT22;8017;50.812;4.934;2022-10-28T03:39:54;16.10;99.90
15834;DHT22;8017;50.812;4.934;2022-10-28T03:42:56;16.00;99.90
15834;DHT22;8017;50.812;4.934;2022-10-28T03:45:58;15.90;99.90
15834;DHT22;8017;50.812;4.934;2022-10-28T03:49:00;15.90;99.90
15834;DHT22;8017;50.812;4.934;2022-10-28T03:52:03;15.90;99.90
15834;DHT22;8017;50.812;4.934;2022-10-28T03:55:06;15.80;99.90
15834;DHT22;8017;50.812;4.934;2022-10-28T03:58:08;15.80;99.90
15834;DHT22;8017;50.812;4.934;2022-10-28T04:01:09;15.70;99.90
15834;DHT22;8017;50.812;4.934;2022-10-28T04:04:11;15.70;99.90
15834;DHT22;8017;50.812;4.934;2022-10-28T04:07:14;15.80;99.90
15834;DHT22;8017;50.812;4.934;2022-10-28T04:10:16;15.80;99.90
15834;DHT22;8017;50.812;4.934;2022-10-28T04:13:18;15.80;99.90
15834;DHT22;8017;50.812;4.934;2022-10-28T04:16:20;15.80;99.90
15834;DHT22;8017;50.812;4.934;2022-10-28T04:19:22;15.90;99.90
15834;DHT22;8017;50.812;4.934;2022-10-28T04:22:25;15.70;99.90
15834;DHT22;8017;50.812;4.934;2022-10-28T04:25:27;15.60;99.90
15834;DHT22;8017;50.812;4.934;2022-10-28T04:28:29;15.60;99.90
15834;DHT22;8017;50.812;4.934;2022-10-28T04:31:31;15.50;99.90
15834;DHT22;8017;50.812;4.934;2022-10-28T04:34:33;15.70;99.90
15834;DHT22;8017;50.812;4.934;2022-10-28T04:37:36;15.70;99.90
15834;DHT22;8017;50.812;4.934;2022-10-28T04:40:38;15.70;99.90
15834;DHT22;8017;50.812;4.934;2022-10-28T04:43:40;15.60;99.90
15834;DHT22;8017;50.812;4.934;2022-10-28T04:46:42;15.60;99.90
15834;DHT22;8017;50.812;4.934;2022-10-28T04:49:44;15.50;99.90
15834;DHT22;8017;50.812;4.934;2022-10-28T04:52:47;15.50;99.90
15834;DHT22;8017;50.812;4.934;2022-10-28T04:55:49;15.50;99.90
15834;DHT22;8017;50.812;4.934;2022-10-28T04:58:51;15.50;99.90
15834;DHT22;8017;50.812;4.934;2022-10-28T05:01:52;15.40;99.90
15834;DHT22;8017;50.812;4.934;2022-10-28T05:04:54;15.40;99.90
15834;DHT22;8017;50.812;4.934;2022-10-28T05:08:01;15.40;99.90
15834;DHT22;8017;50.812;4.934;2022-10-28T05:11:03;15.30;99.90
15834;DHT22;8017;50.812;4.934;2022-10-28T05:14:04;15.20;99.90
15834;DHT22;8017;50.812;4.934;2022-10-28T05:17:07;15.20;99.90
15834;DHT22;8017;50.812;4.934;2022-10-28T05:20:11;15.20;99.90
15834;DHT22;8017;50.812;4.934;2022-10-28T05:23:15;15.20;99.90
15834;DHT22;8017;50.812;4.934;2022-10-28T05:26:17;15.30;99.90
15834;DHT22;8017;50.812;4.934;2022-10-28T05:29:19;15.40;99.90
15834;DHT22;8017;50.812;4.934;2022-10-28T05:32:20;15.50;99.90
15834;DHT22;8017;50.812;4.934;2022-10-28T05:35:22;15.50;99.90
15834;DHT22;8017;50.812;4.934;2022-10-28T05:38:26;15.40;99.90
15834;DHT22;8017;50.812;4.934;2022-10-28T05:41:28;15.40;99.90
15834;DHT22;8017;50.812;4.934;2022-10-28T05:44:30;15.30;99.90
15834;DHT22;8017;50.812;4.934;2022-10-28T05:47:32;15.40;99.90
15834;DHT22;8017;50.812;4.934;2022-10-28T05:50:34;15.30;99.90
15834;DHT22;8017;50.812;4.934;2022-10-28T05:53:37;15.30;99.90
15834;DHT22;8017;50.812;4.934;2022-10-28T05:56:41;15.30;99.90
15834;DHT22;8017;50.812;4.934;2022-10-28T05:59:43;15.30;99.90
15834;DHT22;8017;50.812;4.934;2022-10-28T06:02:45;15.30;99.90
15834;DHT22;8017;50.812;4.934;2022-10-28T06:05:48;15.40;99.90
15834;DHT22;8017;50.812;4.934;2022-10-28T06:08:51;15.30;99.90
15834;DHT22;8017;50.812;4.934;2022-10-28T06:11:53;15.40;99.90
15834;DHT22;8017;50.812;4.934;2022-10-28T06:14:55;15.40;99.90
15834;DHT22;8017;50.812;4.934;2022-10-28T06:17:57;15.30;99.90
15834;DHT22;8017;50.812;4.934;2022-10-28T06:20:58;15.50;99.90
15834;DHT22;8017;50.812;4.934;2022-10-28T06:24:02;15.60;99.90
15834;DHT22;8017;50.812;4.934;2022-10-28T06:27:04;15.50;99.90
15834;DHT22;8017;50.812;4.934;2022-10-28T06:30:07;15.60;99.90
15834;DHT22;8017;50.812;4.934;2022-10-28T06:33:09;15.60;99.90
15834;DHT22;8017;50.812;4.934;2022-10-28T06:36:11;15.50;99.90
15834;DHT22;8017;50.812;4.934;2022-10-28T06:39:14;15.40;99.90
15834;DHT22;8017;50.812;4.934;2022-10-28T06:42:16;15.40;99.90
15834;DHT22;8017;50.812;4.934;2022-10-28T06:45:18;15.50;99.90
15834;DHT22;8017;50.812;4.934;2022-10-28T06:48:20;15.60;99.90
15834;DHT22;8017;50.812;4.934;2022-10-28T06:51:22;15.60;99.90
15834;DHT22;8017;50.812;4.934;2022-10-28T06:54:26;15.60;99.90
15834;DHT22;8017;50.812;4.934;2022-10-28T06:57:28;15.70;99.90
15834;DHT22;8017;50.812;4.934;2022-10-28T07:00:30;15.70;99.90
15834;DHT22;8017;50.812;4.934;2022-10-28T07:03:32;15.60;99.90
15834;DHT22;8017;50.812;4.934;2022-10-28T07:06:34;15.60;99.90
15834;DHT22;8017;50.812;4.934;2022-10-28T07:09:37;15.60;99.90
15834;DHT22;8017;50.812;4.934;2022-10-28T07:12:39;15.70;99.90
15834;DHT22;8017;50.812;4.934;2022-10-28T07:15:41;15.70;99.90
15834;DHT22;8017;50.812;4.934;2022-10-28T07:18:43;15.80;99.90
15834;DHT22;8017;50.812;4.934;2022-10-28T07:21:46;15.90;99.90
15834;DHT22;8017;50.812;4.934;2022-10-28T07:24:51;15.90;99.90
15834;DHT22;8017;50.812;4.934;2022-10-28T07:27:55;16.00;99.90
15834;DHT22;8017;50.812;4.934;2022-10-28T07:30:59;16.20;99.90
15834;DHT22;8017;50.812;4.934;2022-10-28T07:34:01;16.50;99.90
15834;DHT22;8017;50.812;4.934;2022-10-28T07:37:03;16.70;99.90
15834;DHT22;8017;50.812;4.934;2022-10-28T07:40:08;16.90;99.90
15834;DHT22;8017;50.812;4.934;2022-10-28T07:43:10;17.10;99.90
15834;DHT22;8017;50.812;4.934;2022-10-28T07:46:12;17.30;99.90
15834;DHT22;8017;50.812;4.934;2022-10-28T07:49:14;17.40;99.90
15834;DHT22;8017;50.812;4.934;2022-10-28T07:52:17;17.40;99.90
15834;DHT22;8017;50.812;4.934;2022-10-28T07:55:20;17.60;99.90
15834;DHT22;8017;50.812;4.934;2022-10-28T07:58:22;17.80;99.90
15834;DHT22;8017;50.812;4.934;2022-10-28T08:01:23;18.00;99.90
15834;DHT22;8017;50.812;4.934;2022-10-28T08:04:28;18.10;99.90
15834;DHT22;8017;50.812;4.934;2022-10-28T08:07:30;18.30;99.90
15834;DHT22;8017;50.812;4.934;2022-10-28T08:10:33;18.50;99.90
15834;DHT22;8017;50.812;4.934;2022-10-28T08:13:35;18.70;99.90
15834;DHT22;8017;50.812;4.934;2022-10-28T08:16:37;18.60;99.90
15834;DHT22;8017;50.812;4.934;2022-10-28T08:19:39;18.90;99.90
15834;DHT22;8017;50.812;4.934;2022-10-28T08:22:41;19.00;99.90
15834;DHT22;8017;50.812;4.934;2022-10-28T08:25:51;19.10;99.90
15834;DHT22;8017;50.812;4.934;2022-10-28T08:28:53;19.30;99.90
15834;DHT22;8017;50.812;4.934;2022-10-28T08:31:54;19.40;99.90
15834;DHT22;8017;50.812;4.934;2022-10-28T08:34:57;19.40;99.90
15834;DHT22;8017;50.812;4.934;2022-10-28T08:37:59;19.50;99.90
15834;DHT22;8017;50.812;4.934;2022-10-28T08:41:11;19.50;99.90
15834;DHT22;8017;50.812;4.934;2022-10-28T08:47:59;19.80;99.90
15834;DHT22;8017;50.812;4.934;2022-10-28T08:51:05;19.90;99.90
15834;DHT22;8017;50.812;4.934;2022-10-28T08:54:13;20.10;99.90
15834;DHT22;8017;50.812;4.934;2022-10-28T08:57:22;20.20;99.90
15834;DHT22;8017;50.812;4.934;2022-10-28T09:00:28;20.20;99.90
15834;DHT22;8017;50.812;4.934;2022-10-28T09:03:35;20.10;99.90
15834;DHT22;8017;50.812;4.934;2022-10-28T09:06:38;20.20;99.90
15834;DHT22;8017;50.812;4.934;2022-10-28T09:09:40;20.30;99.90
15834;DHT22;8017;50.812;4.934;2022-10-28T09:12:49;20.30;99.90
15834;DHT22;8017;50.812;4.934;2022-10-28T09:15:59;20.50;99.90
15834;DHT22;8017;50.812;4.934;2022-10-28T09:19:14;20.40;99.90
15834;DHT22;8017;50.812;4.934;2022-10-28T09:22:22;20.40;99.90
15834;DHT22;8017;50.812;4.934;2022-10-28T09:25:30;20.30;99.90
15834;DHT22;8017;50.812;4.934;2022-10-28T09:28:47;20.20;99.90
15834;DHT22;8017;50.812;4.934;2022-10-28T09:31:54;20.20;99.90
15834;DHT22;8017;50.812;4.934;2022-10-28T09:35:01;20.40;99.90
15834;DHT22;8017;50.812;4.934;2022-10-28T09:38:14;20.60;99.90
15834;DHT22;8017;50.812;4.934;2022-10-28T09:41:19;20.70;99.90
15834;DHT22;8017;50.812;4.934;2022-10-28T09:44:32;20.90;99.90
15834;DHT22;8017;50.812;4.934;2022-10-28T09:47:40;21.10;99.90
15834;DHT22;8017;50.812;4.934;2022-10-28T09:50:42;21.40;99.90
15834;DHT22;8017;50.812;4.934;2022-10-28T09:53:49;21.40;99.90
15834;DHT22;8017;50.812;4.934;2022-10-28T09:56:53;21.60;99.90
15834;DHT22;8017;50.812;4.934;2022-10-28T09:59:56;21.70;99.90
15834;DHT22;8017;50.812;4.934;2022-10-28T10:02:59;21.70;99.90
15834;DHT22;8017;50.812;4.934;2022-10-28T10:06:08;21.60;99.90
15834;DHT22;8017;50.812;4.934;2022-10-28T10:09:16;21.60;99.90
15834;DHT22;8017;50.812;4.934;2022-10-28T10:12:19;21.70;99.90
15834;DHT22;8017;50.812;4.934;2022-10-28T10:15:27;21.80;99.90
15834;DHT22;8017;50.812;4.934;2022-10-28T10:18:30;22.00;99.90
15834;DHT22;8017;50.812;4.934;2022-10-28T10:21:41;22.10;99.90
15834;DHT22;8017;50.812;4.934;2022-10-28T10:24:44;22.10;99.90
15834;DHT22;8017;50.812;4.934;2022-10-28T10:27:49;22.20;99.90
15834;DHT22;8017;50.812;4.934;2022-10-28T10:30:55;22.20;99.90
15834;DHT22;8017;50.812;4.934;2022-10-28T10:33:58;22.20;99.90
15834;DHT22;8017;50.812;4.934;2022-10-28T10:37:00;22.30;99.90
15834;DHT22;8017;50.812;4.934;2022-10-28T10:40:06;22.20;99.90
15834;DHT22;8017;50.812;4.934;2022-10-28T10:43:19;22.40;99.90
15834;DHT22;8017;50.812;4.934;2022-10-28T10:46:23;22.70;99.90
15834;DHT22;8017;50.812;4.934;2022-10-28T10:49:26;23.00;99.90
15834;DHT22;8017;50.812;4.934;2022-10-28T10:52:29;23.10;99.90
15834;DHT22;8017;50.812;4.934;2022-10-28T10:55:36;23.20;99.90
15834;DHT22;8017;50.812;4.934;2022-10-28T10:58:46;23.40;99.90
15834;DHT22;8017;50.812;4.934;2022-10-28T11:01:51;23.40;99.90
15834;DHT22;8017;50.812;4.934;2022-10-28T11:04:55;23.40;99.90
15834;DHT22;8017;50.812;4.934;2022-10-28T11:07:59;23.40;99.90
15834;DHT22;8017;50.812;4.934;2022-10-28T11:11:07;23.30;99.90
15834;DHT22;8017;50.812;4.934;2022-10-28T11:14:19;23.10;99.90
15834;DHT22;8017;50.812;4.934;2022-10-28T11:17:26;23.10;99.90
15834;DHT22;8017;50.812;4.934;2022-10-28T11:20:38;23.10;99.90
15834;DHT22;8017;50.812;4.934;2022-10-28T11:23:53;23.30;99.90
15834;DHT22;8017;50.812;4.934;2022-10-28T11:27:06;23.50;99.90
15834;DHT22;8017;50.812;4.934;2022-10-28T11:30:13;23.50;99.90
15834;DHT22;8017;50.812;4.934;2022-10-28T11:33:18;23.60;99.90
15834;DHT22;8017;50.812;4.934;2022-10-28T11:36:24;23.60;99.90
15834;DHT22;8017;50.812;4.934;2022-10-28T11:39:33;23.70;99.90
15834;DHT22;8017;50.812;4.934;2022-10-28T11:42:43;23.70;99.90
15834;DHT22;8017;50.812;4.934;2022-10-28T11:45:53;23.60;99.90
15834;DHT22;8017;50.812;4.934;2022-10-28T11:49:23;23.70;99.90
15834;DHT22;8017;50.812;4.934;2022-10-28T11:52:34;23.80;99.90
15834;DHT22;8017;50.812;4.934;2022-10-28T11:55:41;23.80;99.90
15834;DHT22;8017;50.812;4.934;2022-10-28T11:58:58;23.80;99.90
15834;DHT22;8017;50.812;4.934;2022-10-28T12:02:16;23.70;99.90
15834;DHT22;8017;50.812;4.934;2022-10-28T12:05:28;23.70;99.90
15834;DHT22;8017;50.812;4.934;2022-10-28T12:08:41;23.70;99.90
15834;DHT22;8017;50.812;4.934;2022-10-28T12:12:02;23.80;99.90
15834;DHT22;8017;50.812;4.934;2022-10-28T12:15:15;23.80;99.90
15834;DHT22;8017;50.812;4.934;2022-10-28T12:18:21;23.80;99.90
15834;DHT22;8017;50.812;4.934;2022-10-28T12:21:31;23.80;99.90
15834;DHT22;8017;50.812;4.934;2022-10-28T12:24:34;23.60;99.90
15834;DHT22;8017;50.812;4.934;2022-10-28T12:27:40;23.50;99.90
15834;DHT22;8017;50.812;4.934;2022-10-28T12:30:44;23.50;99.90
15834;DHT22;8017;50.812;4.934;2022-10-28T12:33:49;23.50;99.90
15834;DHT22;8017;50.812;4.934;2022-10-28T12:37:03;23.40;99.90
15834;DHT22;8017;50.812;4.934;2022-10-28T12:40:11;23.50;99.90
15834;DHT22;8017;50.812;4.934;2022-10-28T12:43:19;23.40;99.90
15834;DHT22;8017;50.812;4.934;2022-10-28T12:46:29;23.40;99.90
15834;DHT22;8017;50.812;4.934;2022-10-28T12:49:47;23.30;99.90
15834;DHT22;8017;50.812;4.934;2022-10-28T12:52:58;23.30;99.90
15834;DHT22;8017;50.812;4.934;2022-10-28T12:56:08;23.30;99.90
15834;DHT22;8017;50.812;4.934;2022-10-28T12:59:15;23.40;99.90
15834;DHT22;8017;50.812;4.934;2022-10-28T13:02:21;23.20;99.90
15834;DHT22;8017;50.812;4.934;2022-10-28T13:05:28;23.30;99.90
15834;DHT22;8017;50.812;4.934;2022-10-28T13:08:58;23.30;99.90
15834;DHT22;8017;50.812;4.934;2022-10-28T13:15:52;23.40;99.90
15834;DHT22;8017;50.812;4.934;2022-10-28T13:22:42;23.30;99.90
15834;DHT22;8017;50.812;4.934;2022-10-28T13:25:59;23.20;99.90
15834;DHT22;8017;50.812;4.934;2022-10-28T13:29:07;23.20;99.90
15834;DHT22;8017;50.812;4.934;2022-10-28T13:32:28;23.00;99.90
15834;DHT22;8017;50.812;4.934;2022-10-28T13:35:31;22.90;99.90
15834;DHT22;8017;50.812;4.934;2022-10-28T13:38:34;22.80;99.90
15834;DHT22;8017;50.812;4.934;2022-10-28T13:41:39;22.80;99.90
15834;DHT22;8017;50.812;4.934;2022-10-28T13:44:47;22.70;99.90
15834;DHT22;8017;50.812;4.934;2022-10-28T13:47:49;22.70;99.90
15834;DHT22;8017;50.812;4.934;2022-10-28T13:54:50;22.70;99.90
15834;DHT22;8017;50.812;4.934;2022-10-28T13:58:01;22.70;99.90
15834;DHT22;8017;50.812;4.934;2022-10-28T14:04:36;22.60;99.90
15834;DHT22;8017;50.812;4.934;2022-10-28T14:07:50;22.60;99.90
15834;DHT22;8017;50.812;4.934;2022-10-28T14:11:05;22.80;99.90
15834;DHT22;8017;50.812;4.934;2022-10-28T14:14:15;22.90;99.90
15834;DHT22;8017;50.812;4.934;2022-10-28T14:17:21;22.80;99.90
15834;DHT22;8017;50.812;4.934;2022-10-28T14:20:27;22.90;99.90
15834;DHT22;8017;50.812;4.934;2022-10-28T14:27:24;22.80;99.90
15834;DHT22;8017;50.812;4.934;2022-10-28T14:30:28;22.70;99.90
15834;DHT22;8017;50.812;4.934;2022-10-28T14:33:30;22.60;99.90
15834;DHT22;8017;50.812;4.934;2022-10-28T14:36:36;22.50;99.90
15834;DHT22;8017;50.812;4.934;2022-10-28T14:39:44;22.40;99.90
15834;DHT22;8017;50.812;4.934;2022-10-28T14:43:09;22.20;99.90
15834;DHT22;8017;50.812;4.934;2022-10-28T14:46:28;22.10;99.90
15834;DHT22;8017;50.812;4.934;2022-10-28T14:49:31;22.00;99.90
15834;DHT22;8017;50.812;4.934;2022-10-28T14:52:35;22.00;99.90
15834;DHT22;8017;50.812;4.934;2022-10-28T14:55:38;22.00;99.90
15834;DHT22;8017;50.812;4.934;2022-10-28T14:58:41;22.00;99.90
15834;DHT22;8017;50.812;4.934;2022-10-28T15:02:03;21.90;99.90
15834;DHT22;8017;50.812;4.934;2022-10-28T15:05:16;21.90;99.90
15834;DHT22;8017;50.812;4.934;2022-10-28T15:08:19;21.90;99.90
15834;DHT22;8017;50.812;4.934;2022-10-28T15:11:21;21.90;99.90
15834;DHT22;8017;50.812;4.934;2022-10-28T15:14:32;21.80;99.90
15834;DHT22;8017;50.812;4.934;2022-10-28T15:17:37;21.70;99.90
15834;DHT22;8017;50.812;4.934;2022-10-28T15:20:39;21.60;99.90
15834;DHT22;8017;50.812;4.934;2022-10-28T15:23:41;21.60;99.90
15834;DHT22;8017;50.812;4.934;2022-10-28T15:26:43;21.50;99.90
15834;DHT22;8017;50.812;4.934;2022-10-28T15:29:46;21.50;99.90
15834;DHT22;8017;50.812;4.934;2022-10-28T15:32:50;21.50;99.90
15834;DHT22;8017;50.812;4.934;2022-10-28T15:35:52;21.40;99.90
15834;DHT22;8017;50.812;4.934;2022-10-28T15:39:05;21.30;99.90
15834;DHT22;8017;50.812;4.934;2022-10-28T15:42:28;21.30;99.90
15834;DHT22;8017;50.812;4.934;2022-10-28T15:45:32;21.20;99.90
15834;DHT22;8017;50.812;4.934;2022-10-28T15:48:36;21.00;99.90
15834;DHT22;8017;50.812;4.934;2022-10-28T15:51:38;20.90;99.90
15834;DHT22;8017;50.812;4.934;2022-10-28T15:54:40;20.80;99.90
15834;DHT22;8017;50.812;4.934;2022-10-28T15:57:46;20.60;99.90
15834;DHT22;8017;50.812;4.934;2022-10-28T16:00:51;20.50;99.90
15834;DHT22;8017;50.812;4.934;2022-10-28T16:03:54;20.40;99.90
15834;DHT22;8017;50.812;4.934;2022-10-28T16:06:57;20.30;99.90
15834;DHT22;8017;50.812;4.934;2022-10-28T16:10:13;20.10;99.90
15834;DHT22;8017;50.812;4.934;2022-10-28T16:13:21;20.00;99.90
15834;DHT22;8017;50.812;4.934;2022-10-28T16:16:25;19.90;99.90
15834;DHT22;8017;50.812;4.934;2022-10-28T16:19:33;19.80;99.90
15834;DHT22;8017;50.812;4.934;2022-10-28T16:22:38;19.80;99.90
15834;DHT22;8017;50.812;4.934;2022-10-28T16:25:40;19.70;99.90
15834;DHT22;8017;50.812;4.934;2022-10-28T16:28:42;19.70;99.90
15834;DHT22;8017;50.812;4.934;2022-10-28T16:31:45;19.70;99.90
15834;DHT22;8017;50.812;4.934;2022-10-28T16:34:50;19.70;99.90
15834;DHT22;8017;50.812;4.934;2022-10-28T16:37:52;19.60;99.90
15834;DHT22;8017;50.812;4.934;2022-10-28T16:40:55;19.50;99.90
15834;DHT22;8017;50.812;4.934;2022-10-28T16:43:57;19.40;99.90
15834;DHT22;8017;50.812;4.934;2022-10-28T16:46:58;19.30;99.90
15834;DHT22;8017;50.812;4.934;2022-10-28T16:50:02;19.20;99.90
15834;DHT22;8017;50.812;4.934;2022-10-28T16:53:04;19.10;99.90
15834;DHT22;8017;50.812;4.934;2022-10-28T16:56:06;19.00;99.90
15834;DHT22;8017;50.812;4.934;2022-10-28T16:59:08;18.90;99.90
15834;DHT22;8017;50.812;4.934;2022-10-28T17:02:13;18.90;99.90
15834;DHT22;8017;50.812;4.934;2022-10-28T17:05:19;18.90;99.90
15834;DHT22;8017;50.812;4.934;2022-10-28T17:08:21;18.90;99.90
15834;DHT22;8017;50.812;4.934;2022-10-28T17:11:23;18.80;99.90
15834;DHT22;8017;50.812;4.934;2022-10-28T17:14:25;18.80;99.90
15834;DHT22;8017;50.812;4.934;2022-10-28T17:17:27;18.70;99.90
15834;DHT22;8017;50.812;4.934;2022-10-28T17:20:30;18.60;99.90
15834;DHT22;8017;50.812;4.934;2022-10-28T17:23:33;18.50;99.90
15834;DHT22;8017;50.812;4.934;2022-10-28T17:26:35;18.50;99.90
15834;DHT22;8017;50.812;4.934;2022-10-28T17:29:36;18.40;99.90
15834;DHT22;8017;50.812;4.934;2022-10-28T17:32:38;18.40;99.90
15834;DHT22;8017;50.812;4.934;2022-10-28T17:35:41;18.30;99.90
15834;DHT22;8017;50.812;4.934;2022-10-28T17:38:43;18.30;99.90
15834;DHT22;8017;50.812;4.934;2022-10-28T17:41:48;18.30;99.90
15834;DHT22;8017;50.812;4.934;2022-10-28T17:44:50;18.30;99.90
15834;DHT22;8017;50.812;4.934;2022-10-28T17:47:51;18.20;99.90
15834;DHT22;8017;50.812;4.934;2022-10-28T17:50:55;18.20;99.90
15834;DHT22;8017;50.812;4.934;2022-10-28T17:53:57;18.10;99.90
15834;DHT22;8017;50.812;4.934;2022-10-28T17:56:59;18.10;99.90
15834;DHT22;8017;50.812;4.934;2022-10-28T18:00:01;18.10;99.90
15834;DHT22;8017;50.812;4.934;2022-10-28T18:03:03;18.10;99.90
15834;DHT22;8017;50.812;4.934;2022-10-28T18:06:10;18.10;99.90
15834;DHT22;8017;50.812;4.934;2022-10-28T18:09:12;18.00;99.90
15834;DHT22;8017;50.812;4.934;2022-10-28T18:12:14;18.00;99.90
15834;DHT22;8017;50.812;4.934;2022-10-28T18:15:16;17.90;99.90
15834;DHT22;8017;50.812;4.934;2022-10-28T18:18:18;17.80;99.90
15834;DHT22;8017;50.812;4.934;2022-10-28T18:21:22;17.70;99.90
15834;DHT22;8017;50.812;4.934;2022-10-28T18:24:24;17.60;99.90
15834;DHT22;8017;50.812;4.934;2022-10-28T18:27:27;17.60;99.90
15834;DHT22;8017;50.812;4.934;2022-10-28T18:30:29;17.50;99.90
15834;DHT22;8017;50.812;4.934;2022-10-28T18:33:33;17.50;99.90
15834;DHT22;8017;50.812;4.934;2022-10-28T18:36:36;17.40;99.90
15834;DHT22;8017;50.812;4.934;2022-10-28T18:39:38;17.40;99.90
15834;DHT22;8017;50.812;4.934;2022-10-28T18:42:40;17.40;99.90
15834;DHT22;8017;50.812;4.934;2022-10-28T18:45:42;17.40;99.90
15834;DHT22;8017;50.812;4.934;2022-10-28T18:48:44;17.40;99.90
15834;DHT22;8017;50.812;4.934;2022-10-28T18:51:47;17.50;99.90
15834;DHT22;8017;50.812;4.934;2022-10-28T18:54:49;17.60;99.90
15834;DHT22;8017;50.812;4.934;2022-10-28T18:57:51;17.60;99.90
15834;DHT22;8017;50.812;4.934;2022-10-28T19:01:01;17.70;99.90
15834;DHT22;8017;50.812;4.934;2022-10-28T19:04:03;17.70;99.90
15834;DHT22;8017;50.812;4.934;2022-10-28T19:07:07;17.70;99.90
15834;DHT22;8017;50.812;4.934;2022-10-28T19:10:09;17.70;99.90
15834;DHT22;8017;50.812;4.934;2022-10-28T19:13:11;17.70;99.90
15834;DHT22;8017;50.812;4.934;2022-10-28T19:16:13;17.70;99.90
15834;DHT22;8017;50.812;4.934;2022-10-28T19:19:15;17.70;99.90
15834;DHT22;8017;50.812;4.934;2022-10-28T19:22:19;17.60;99.90
15834;DHT22;8017;50.812;4.934;2022-10-28T19:25:20;17.50;99.90
15834;DHT22;8017;50.812;4.934;2022-10-28T19:28:22;17.50;99.90
15834;DHT22;8017;50.812;4.934;2022-10-28T19:31:25;17.30;99.90
15834;DHT22;8017;50.812;4.934;2022-10-28T19:34:27;17.30;99.90
15834;DHT22;8017;50.812;4.934;2022-10-28T19:37:31;17.20;99.90
15834;DHT22;8017;50.812;4.934;2022-10-28T19:40:32;17.10;99.90
15834;DHT22;8017;50.812;4.934;2022-10-28T19:43:35;17.10;99.90
15834;DHT22;8017;50.812;4.934;2022-10-28T19:46:37;17.00;99.90
15834;DHT22;8017;50.812;4.934;2022-10-28T19:49:39;17.00;99.90
15834;DHT22;8017;50.812;4.934;2022-10-28T19:52:42;16.90;99.90
15834;DHT22;8017;50.812;4.934;2022-10-28T19:55:44;16.90;99.90
15834;DHT22;8017;50.812;4.934;2022-10-28T19:58:47;16.80;99.90
15834;DHT22;8017;50.812;4.934;2022-10-28T20:01:50;16.80;99.90
15834;DHT22;8017;50.812;4.934;2022-10-28T20:04:52;16.80;99.90
15834;DHT22;8017;50.812;4.934;2022-10-28T20:07:58;16.70;99.90
15834;DHT22;8017;50.812;4.934;2022-10-28T20:11:02;16.70;99.90